Time;durP1;ratioP1;P1;durP2;ratioP2;P2;SDS_P1;SDS_P2;PMS_P1;PMS_P2;Temp;Humidity;BMP_temperature;BMP_pressure;BME280_temperature;BME280_humidity;BME280_pressure;Samples;Min_cycle;Max_cycle;Signal;HPM_P1;HPM_P2
2022/08/24 00:00:00;;;;;;;5.60;5.20;;;;;;;;;;5089237;28;20469;-76
2022/08/24 00:02:27;;;;;;;7.53;5.73;;;;;;;;;;5089104;28;20440;-75
2022/08/24 00:04:55;;;;;;;5.57;5.10;;;;;;;;;;5089582;28;20503;-76
2022/08/24 00:07:22;;;;;;;9.47;5.97;;;;;;;;;;5089880;28;20528;-77
2022/08/24 00:09:49;;;;;;;6.17;5.67;;;;;;;;;;5089789;28;20517;-76
2022/08/24 00:12:16;;;;;;;5.90;5.30;;;;;;;;;;5078028;28;20499;-76
2022/08/24 00:14:45;;;;;;;10.27;5.53;;;;;;;;;;5093109;28;20428;-76
2022/08/24 00:17:12;;;;;;;7.60;6.10;;;;;;;;;;5089535;28;20468;-77
2022/08/24 00:19:39;;;;;;;10.00;5.20;;;;;;;;;;5090233;28;20435;-76
2022/08/24 00:22:06;;;;;;;8.07;5.73;;;;;;;;;;5104165;28;20447;-76
2022/08/24 00:24:33;;;;;;;7.03;4.87;;;;;;;;;;5114229;28;20517;-76
2022/08/24 00:27:00;;;;;;;6.87;5.20;;;;;;;;;;5115444;28;20485;-77
2022/08/24 00:29:27;;;;;;;5.93;5.10;;;;;;;;;;5115691;28;20420;-76
2022/08/24 00:31:56;;;;;;;5.80;5.03;;;;;;;;;;5115753;28;20492;-76
2022/08/24 00:34:24;;;;;;;5.30;4.83;;;;;;;;;;5115479;28;20450;-75
2022/08/24 00:36:52;;;;;;;5.83;5.33;;;;;;;;;;5112400;28;20479;-75
2022/08/24 00:39:19;;;;;;;6.17;5.30;;;;;;;;;;5090782;28;20487;-76
2022/08/24 00:41:48;;;;;;;5.70;5.20;;;;;;;;;;5086882;28;20452;-76
2022/08/24 00:44:16;;;;;;;6.20;5.80;;;;;;;;;;5085614;28;20877;-77
2022/08/24 00:46:45;;;;;;;5.70;5.30;;;;;;;;;;5085966;28;20478;-75
2022/08/24 00:49:19;;;;;;;6.17;5.67;;;;;;;;;;5089274;28;20491;-76
2022/08/24 00:51:48;;;;;;;6.70;6.07;;;;;;;;;;5093151;28;20456;-75
2022/08/24 00:54:16;;;;;;;6.27;5.70;;;;;;;;;;5092919;28;20508;-77
2022/08/24 00:56:46;;;;;;;6.80;6.00;;;;;;;;;;5089835;28;20467;-76
2022/08/24 00:59:21;;;;;;;7.13;5.10;;;;;;;;;;5085828;28;20596;-76
2022/08/24 01:01:49;;;;;;;5.93;5.43;;;;;;;;;;5093429;28;20530;-76
2022/08/24 01:04:20;;;;;;;6.40;5.80;;;;;;;;;;5093189;28;20446;-76
2022/08/24 01:06:48;;;;;;;5.90;5.50;;;;;;;;;;5093104;28;20517;-76
2022/08/24 01:09:16;;;;;;;6.30;5.50;;;;;;;;;;5092999;28;20451;-77
2022/08/24 01:11:43;;;;;;;8.53;6.17;;;;;;;;;;5092953;28;20953;-76
2022/08/24 01:14:10;;;;;;;6.70;6.00;;;;;;;;;;5092920;28;20444;-76
2022/08/24 01:19:30;;;;;;;7.00;6.30;;;;;;;;;;5092776;28;20501;-76
2022/08/24 01:22:03;;;;;;;7.20;6.50;;;;;;;;;;5092695;28;20451;-77
2022/08/24 01:24:32;;;;;;;6.30;5.80;;;;;;;;;;5092925;28;20451;-76
2022/08/24 01:26:59;;;;;;;8.70;6.43;;;;;;;;;;5092988;28;20520;-76
2022/08/24 01:29:27;;;;;;;7.40;6.80;;;;;;;;;;5092721;28;20530;-75
2022/08/24 01:31:55;;;;;;;6.50;6.10;;;;;;;;;;5093131;28;20452;-76
2022/08/24 01:34:22;;;;;;;7.00;6.47;;;;;;;;;;5092098;28;20436;-75
2022/08/24 01:36:50;;;;;;;6.97;6.37;;;;;;;;;;5089314;28;20463;-77
2022/08/24 01:39:20;;;;;;;6.50;6.00;;;;;;;;;;5092947;28;20489;-76
2022/08/24 01:41:49;;;;;;;7.43;6.90;;;;;;;;;;5092716;28;20550;-76
2022/08/24 01:44:17;;;;;;;7.50;6.70;;;;;;;;;;5092557;28;20579;-75
2022/08/24 01:46:44;;;;;;;7.10;6.50;;;;;;;;;;5092733;28;20536;-76
2022/08/24 01:49:11;;;;;;;6.83;6.30;;;;;;;;;;5092503;28;20503;-77
2022/08/24 01:51:38;;;;;;;8.03;7.23;;;;;;;;;;5092855;28;20444;-77
2022/08/24 01:54:05;;;;;;;7.90;7.20;;;;;;;;;;5092257;28;20448;-75
2022/08/24 01:56:33;;;;;;;8.67;7.97;;;;;;;;;;5094133;28;20467;-76
2022/08/24 01:59:02;;;;;;;8.40;7.70;;;;;;;;;;5100989;28;20482;-76
2022/08/24 02:01:31;;;;;;;7.20;6.67;;;;;;;;;;5095484;28;20440;-77
2022/08/24 02:03:58;;;;;;;7.67;6.97;;;;;;;;;;5095665;28;20436;-76
2022/08/24 02:06:26;;;;;;;8.40;7.70;;;;;;;;;;5103775;28;20534;-75
2022/08/24 02:08:53;;;;;;;8.80;8.10;;;;;;;;;;5103982;28;20480;-75
2022/08/24 02:11:20;;;;;;;8.57;7.77;;;;;;;;;;5102590;28;20440;-75
2022/08/24 02:13:47;;;;;;;7.97;7.27;;;;;;;;;;5099246;28;20439;-75
2022/08/24 02:16:15;;;;;;;9.30;8.47;;;;;;;;;;5092321;28;20456;-77
2022/08/24 02:18:43;;;;;;;9.20;8.30;;;;;;;;;;5102094;28;20471;-76
2022/08/24 02:21:10;;;;;;;9.73;8.93;;;;;;;;;;5102606;28;20435;-75
2022/08/24 02:23:37;;;;;;;10.17;9.47;;;;;;;;;;5098400;28;20891;-76
2022/08/24 02:26:05;;;;;;;10.47;9.50;;;;;;;;;;5094446;28;20487;-76
2022/08/24 02:28:32;;;;;;;9.97;9.17;;;;;;;;;;5092754;28;20509;-76
2022/08/24 02:30:59;;;;;;;9.60;8.83;;;;;;;;;;5092482;28;20444;-76
2022/08/24 02:33:28;;;;;;;9.57;8.77;;;;;;;;;;5092836;28;20439;-76
2022/08/24 02:35:55;;;;;;;10.13;9.43;;;;;;;;;;5092777;28;20460;-76
2022/08/24 02:38:22;;;;;;;9.60;8.80;;;;;;;;;;5093174;28;20447;-76
2022/08/24 02:40:50;;;;;;;9.27;8.53;;;;;;;;;;5091434;28;20456;-77
2022/08/24 02:43:17;;;;;;;10.37;9.30;;;;;;;;;;5091244;28;20516;-76
2022/08/24 02:45:45;;;;;;;10.17;9.20;;;;;;;;;;5091356;28;20983;-77
2022/08/24 02:48:12;;;;;;;10.07;9.10;;;;;;;;;;5091533;28;20451;-75
2022/08/24 02:50:41;;;;;;;9.77;8.93;;;;;;;;;;5091062;28;20432;-75
2022/08/24 02:53:08;;;;;;;9.17;8.27;;;;;;;;;;5086689;28;20517;-76
2022/08/24 02:55:38;;;;;;;10.60;9.80;;;;;;;;;;5090598;28;20468;-77
2022/08/24 02:58:05;;;;;;;9.73;8.87;;;;;;;;;;5089609;28;20466;-77
2022/08/24 03:00:32;;;;;;;10.83;9.97;;;;;;;;;;5091701;28;20489;-76
2022/08/24 03:03:00;;;;;;;9.50;8.77;;;;;;;;;;5090344;28;20862;-76
2022/08/24 03:05:27;;;;;;;9.87;9.00;;;;;;;;;;5090854;28;20467;-76
2022/08/24 03:07:56;;;;;;;9.50;8.80;;;;;;;;;;5090859;28;20451;-76
2022/08/24 03:10:23;;;;;;;10.40;9.43;;;;;;;;;;5090415;28;20451;-76
2022/08/24 03:12:50;;;;;;;9.33;8.53;;;;;;;;;;5090165;28;20975;-76
2022/08/24 03:15:17;;;;;;;10.00;9.20;;;;;;;;;;5090531;28;20440;-76
2022/08/24 03:17:44;;;;;;;10.43;9.63;;;;;;;;;;5090653;28;20450;-76
2022/08/24 03:20:13;;;;;;;9.37;8.60;;;;;;;;;;5091428;28;20448;-77
2022/08/24 03:22:41;;;;;;;11.67;10.57;;;;;;;;;;5091663;28;20948;-77
2022/08/24 03:25:11;;;;;;;9.53;8.67;;;;;;;;;;5090729;28;20509;-77
2022/08/24 03:27:38;;;;;;;10.03;9.23;;;;;;;;;;5091102;28;20521;-76
2022/08/24 03:30:06;;;;;;;9.53;8.63;;;;;;;;;;5090375;28;20448;-77
2022/08/24 03:32:33;;;;;;;10.30;9.40;;;;;;;;;;5090235;28;20428;-76
2022/08/24 03:35:01;;;;;;;9.67;8.77;;;;;;;;;;5090534;28;20447;-76
2022/08/24 03:37:28;;;;;;;10.27;9.30;;;;;;;;;;5090479;28;20472;-77
2022/08/24 03:39:55;;;;;;;9.97;9.07;;;;;;;;;;5090408;28;20451;-76
2022/08/24 03:42:23;;;;;;;10.77;9.33;;;;;;;;;;5090618;28;20443;-75
2022/08/24 03:44:50;;;;;;;10.60;9.80;;;;;;;;;;5090214;28;20839;-76
2022/08/24 03:47:18;;;;;;;10.27;9.30;;;;;;;;;;5090342;28;20484;-77
2022/08/24 03:49:45;;;;;;;9.20;8.40;;;;;;;;;;5090249;28;20448;-76
2022/08/24 03:52:12;;;;;;;9.90;9.10;;;;;;;;;;5091225;28;20442;-76
2022/08/24 03:54:39;;;;;;;9.63;8.80;;;;;;;;;;5089908;28;20448;-77
2022/08/24 03:57:06;;;;;;;10.33;9.50;;;;;;;;;;5090133;28;20470;-77
2022/08/24 03:59:35;;;;;;;10.03;9.17;;;;;;;;;;5090465;28;20448;-77
2022/08/24 04:02:02;;;;;;;11.10;10.10;;;;;;;;;;5090236;28;20455;-76
2022/08/24 04:04:30;;;;;;;10.17;9.27;;;;;;;;;;5089699;28;20815;-76
2022/08/24 04:06:57;;;;;;;9.87;9.07;;;;;;;;;;5090216;28;20533;-76
2022/08/24 04:09:24;;;;;;;10.27;9.10;;;;;;;;;;5084825;28;20464;-77
2022/08/24 04:11:51;;;;;;;9.97;8.40;;;;;;;;;;5089115;28;20444;-77
2022/08/24 04:14:19;;;;;;;8.97;8.37;;;;;;;;;;5089570;28;20657;-76
2022/08/24 04:16:47;;;;;;;8.33;7.63;;;;;;;;;;5089610;28;20460;-75
2022/08/24 04:19:15;;;;;;;9.17;8.27;;;;;;;;;;5086859;28;20503;-76
2022/08/24 04:21:43;;;;;;;8.93;7.97;;;;;;;;;;5089316;28;20472;-77
2022/08/24 04:24:10;;;;;;;8.33;7.70;;;;;;;;;;5093243;28;21000;-76
2022/08/24 04:26:37;;;;;;;9.00;8.23;;;;;;;;;;5093728;28;20607;-77
2022/08/24 04:29:05;;;;;;;8.90;8.00;;;;;;;;;;5093565;28;20451;-77
2022/08/24 04:31:33;;;;;;;8.50;7.80;;;;;;;;;;5094205;28;20485;-77
2022/08/24 04:34:02;;;;;;;8.70;8.00;;;;;;;;;;5089168;28;21014;-76
2022/08/24 04:36:29;;;;;;;8.57;7.67;;;;;;;;;;5090013;28;20467;-77
2022/08/24 04:38:56;;;;;;;9.20;8.30;;;;;;;;;;5087304;28;20448;-75
2022/08/24 04:41:23;;;;;;;8.77;8.07;;;;;;;;;;5089233;28;20489;-75
2022/08/24 04:43:50;;;;;;;7.93;7.13;;;;;;;;;;5093498;28;20513;-77
2022/08/24 04:46:18;;;;;;;8.47;7.83;;;;;;;;;;5093779;28;20476;-76
2022/08/24 04:48:46;;;;;;;8.00;7.37;;;;;;;;;;5093903;28;20447;-77
2022/08/24 04:51:16;;;;;;;10.70;8.20;;;;;;;;;;5093261;28;20960;-77
2022/08/24 04:53:44;;;;;;;8.77;8.13;;;;;;;;;;5086444;28;20544;-77
2022/08/24 04:56:11;;;;;;;11.90;8.80;;;;;;;;;;5088508;28;20472;-76
2022/08/24 04:58:39;;;;;;;9.30;8.50;;;;;;;;;;5092835;28;20485;-76
2022/08/24 05:01:07;;;;;;;9.07;8.17;;;;;;;;;;5093262;28;20526;-76
2022/08/24 05:03:34;;;;;;;9.63;8.73;;;;;;;;;;5093850;28;20868;-75
2022/08/24 05:06:02;;;;;;;10.23;9.23;;;;;;;;;;5094366;28;21005;-76
2022/08/24 05:08:30;;;;;;;10.30;9.40;;;;;;;;;;5095086;28;20440;-76
2022/08/24 05:10:58;;;;;;;9.23;8.50;;;;;;;;;;5091513;28;20469;-76
2022/08/24 05:13:25;;;;;;;9.40;8.60;;;;;;;;;;5092393;28;20504;-77
2022/08/24 05:15:52;;;;;;;9.50;8.20;;;;;;;;;;5092615;28;20460;-77
2022/08/24 05:18:19;;;;;;;9.50;8.57;;;;;;;;;;5092240;28;20447;-75
2022/08/24 05:20:47;;;;;;;9.80;9.00;;;;;;;;;;5092688;28;20447;-77
2022/08/24 05:23:14;;;;;;;9.17;8.47;;;;;;;;;;5092699;28;20447;-76
2022/08/24 05:25:43;;;;;;;9.20;8.50;;;;;;;;;;5092887;28;20467;-77
2022/08/24 05:28:10;;;;;;;9.23;8.43;;;;;;;;;;5093584;28;20467;-77
2022/08/24 05:30:37;;;;;;;9.47;8.50;;;;;;;;;;5093260;28;20456;-77
2022/08/24 05:33:04;;;;;;;9.10;8.40;;;;;;;;;;5091883;28;20436;-76
2022/08/24 05:35:31;;;;;;;11.57;8.80;;;;;;;;;;5091241;28;20468;-76
2022/08/24 05:37:58;;;;;;;9.60;8.67;;;;;;;;;;5092412;28;20444;-76
2022/08/24 05:40:25;;;;;;;8.10;7.37;;;;;;;;;;5092403;28;20451;-77
2022/08/24 05:42:54;;;;;;;8.90;8.17;;;;;;;;;;5092802;28;20455;-76
2022/08/24 05:45:21;;;;;;;8.97;8.20;;;;;;;;;;5087492;28;20456;-77
2022/08/24 05:47:48;;;;;;;10.67;9.13;;;;;;;;;;5091928;28;20486;-76
2022/08/24 05:50:15;;;;;;;10.33;9.43;;;;;;;;;;5092358;28;20455;-76
2022/08/24 05:52:42;;;;;;;9.17;8.27;;;;;;;;;;5091756;28;21017;-76
2022/08/24 05:55:09;;;;;;;8.87;8.17;;;;;;;;;;5091954;28;20444;-76
2022/08/24 05:57:37;;;;;;;8.47;7.67;;;;;;;;;;5091722;28;20879;-77
2022/08/24 06:00:08;;;;;;;8.60;7.90;;;;;;;;;;5091601;28;20489;-76
2022/08/24 06:02:35;;;;;;;9.70;8.73;;;;;;;;;;5091750;28;20496;-77
2022/08/24 06:05:02;;;;;;;9.00;7.50;;;;;;;;;;5091743;28;20444;-76
2022/08/24 06:07:29;;;;;;;8.87;7.97;;;;;;;;;;5092307;28;20484;-76
2022/08/24 06:09:56;;;;;;;10.53;8.37;;;;;;;;;;5091532;28;20454;-76
2022/08/24 06:12:24;;;;;;;8.90;8.10;;;;;;;;;;5091639;28;20478;-76
2022/08/24 06:14:51;;;;;;;9.03;8.13;;;;;;;;;;5091690;28;20447;-77
2022/08/24 06:17:19;;;;;;;8.57;7.87;;;;;;;;;;5092030;28;20784;-77
2022/08/24 06:19:46;;;;;;;9.27;8.50;;;;;;;;;;5091765;28;20447;-77
2022/08/24 06:22:13;;;;;;;9.10;8.30;;;;;;;;;;5092136;28;20435;-77
2022/08/24 06:27:25;;;;;;;9.33;8.47;;;;;;;;;;5092128;28;20997;-76
2022/08/24 06:29:53;;;;;;;8.97;8.27;;;;;;;;;;5092372;28;20935;-76
2022/08/24 06:32:22;;;;;;;8.60;7.77;;;;;;;;;;5093287;28;20446;-77
2022/08/24 06:34:49;;;;;;;10.70;8.93;;;;;;;;;;5091633;28;20439;-76
2022/08/24 06:37:16;;;;;;;8.67;8.07;;;;;;;;;;5091928;28;20464;-76
2022/08/24 06:39:43;;;;;;;8.93;8.23;;;;;;;;;;5091552;28;20440;-77
2022/08/24 06:42:10;;;;;;;9.53;8.73;;;;;;;;;;5091136;28;20451;-76
2022/08/24 06:44:37;;;;;;;9.10;8.30;;;;;;;;;;5091182;28;20530;-76
2022/08/24 06:47:05;;;;;;;9.23;8.40;;;;;;;;;;5092297;28;20559;-77
2022/08/24 06:49:33;;;;;;;9.40;8.60;;;;;;;;;;5097883;28;20505;-77
2022/08/24 06:52:00;;;;;;;9.90;8.93;;;;;;;;;;5097411;28;20432;-76
2022/08/24 06:54:27;;;;;;;10.53;8.50;;;;;;;;;;5091133;28;20917;-77
2022/08/24 06:56:55;;;;;;;9.83;8.77;;;;;;;;;;5091003;28;20509;-77
2022/08/24 06:59:22;;;;;;;9.43;8.73;;;;;;;;;;5086405;28;20455;-76
2022/08/24 07:01:49;;;;;;;9.50;8.80;;;;;;;;;;5085264;28;20968;-76
2022/08/24 07:04:16;;;;;;;10.27;9.30;;;;;;;;;;5085991;28;20447;-76
2022/08/24 07:06:45;;;;;;;9.50;8.60;;;;;;;;;;5089909;28;20476;-77
2022/08/24 07:09:12;;;;;;;10.40;8.30;;;;;;;;;;5090500;28;20513;-76
2022/08/24 07:11:39;;;;;;;9.93;9.13;;;;;;;;;;5090456;28;20452;-76
2022/08/24 07:14:06;;;;;;;9.07;8.17;;;;;;;;;;5091430;28;20490;-77
2022/08/24 07:16:33;;;;;;;11.97;8.47;;;;;;;;;;5092058;28;20550;-77
2022/08/24 07:19:01;;;;;;;9.10;8.20;;;;;;;;;;5092346;28;20497;-76
2022/08/24 07:21:28;;;;;;;9.20;7.50;;;;;;;;;;5092327;28;20480;-76
2022/08/24 07:23:57;;;;;;;10.23;9.23;;;;;;;;;;5091220;28;20448;-77
2022/08/24 07:26:26;;;;;;;9.13;8.23;;;;;;;;;;5091520;28;20472;-76
2022/08/24 07:28:54;;;;;;;9.30;8.40;;;;;;;;;;5092689;28;20875;-77
2022/08/24 07:31:22;;;;;;;10.20;9.30;;;;;;;;;;5092955;28;20554;-77
2022/08/24 07:33:49;;;;;;;13.70;9.53;;;;;;;;;;5091708;28;20513;-77
2022/08/24 07:36:16;;;;;;;10.83;9.80;;;;;;;;;;5091621;28;20467;-76
2022/08/24 07:38:43;;;;;;;9.50;8.60;;;;;;;;;;5091997;28;20440;-76
2022/08/24 07:41:13;;;;;;;10.23;9.43;;;;;;;;;;5091419;28;20588;-77
2022/08/24 07:43:40;;;;;;;10.90;9.10;;;;;;;;;;5091413;28;20440;-76
2022/08/24 07:46:07;;;;;;;9.60;8.80;;;;;;;;;;5091610;28;21102;-76
2022/08/24 07:48:35;;;;;;;8.70;7.80;;;;;;;;;;5091951;28;20479;-77
2022/08/24 07:51:07;;;;;;;13.20;8.00;;;;;;;;;;5092139;28;20448;-76
2022/08/24 07:53:34;;;;;;;9.33;8.20;;;;;;;;;;5091184;28;20862;-77
2022/08/24 07:56:01;;;;;;;7.90;7.23;;;;;;;;;;5090909;28;20547;-76
2022/08/24 07:58:29;;;;;;;8.00;7.30;;;;;;;;;;5092800;28;20444;-76
2022/08/24 08:00:57;;;;;;;8.43;6.50;;;;;;;;;;5093854;28;20448;-77
2022/08/24 08:03:25;;;;;;;6.93;6.43;;;;;;;;;;5093835;28;20444;-77
2022/08/24 08:05:56;;;;;;;6.10;5.50;;;;;;;;;;5094201;28;20866;-77
2022/08/24 08:08:24;;;;;;;6.30;5.33;;;;;;;;;;5094011;28;20493;-75
2022/08/24 08:10:51;;;;;;;6.20;5.60;;;;;;;;;;5085310;28;20954;-76
2022/08/24 08:13:18;;;;;;;5.10;4.70;;;;;;;;;;5073762;28;20455;-77
2022/08/24 08:15:47;;;;;;;5.07;4.67;;;;;;;;;;5073537;28;21161;-77
2022/08/24 08:18:15;;;;;;;5.37;4.87;;;;;;;;;;5073123;28;20868;-77
2022/08/24 08:20:43;;;;;;;8.93;4.97;;;;;;;;;;5073439;28;20518;-76
2022/08/24 08:25:57;;;;;;;5.90;5.40;;;;;;;;;;5073408;28;20463;-76
2022/08/24 08:28:24;;;;;;;8.50;5.20;;;;;;;;;;5073566;28;20567;-76
2022/08/24 08:30:53;;;;;;;5.37;4.87;;;;;;;;;;5073682;28;20444;-77
2022/08/24 08:33:20;;;;;;;5.00;4.47;;;;;;;;;;5073449;28;20455;-75
2022/08/24 08:35:48;;;;;;;5.00;4.50;;;;;;;;;;5073763;28;20838;-76
2022/08/24 08:38:15;;;;;;;4.63;4.23;;;;;;;;;;5073203;28;20451;-76
2022/08/24 08:40:54;;;;;;;6.67;4.20;;;;;;;;;;5073447;28;20444;-77
2022/08/24 08:43:32;;;;;;;4.27;3.97;;;;;;;;;;5073323;28;20452;-76
2022/08/24 08:46:10;;;;;;;9.87;4.07;;;;;;;;;;5073173;28;20460;-77
2022/08/24 08:48:55;;;;;;;4.43;4.00;;;;;;;;;;5083001;28;20475;-76
2022/08/24 08:51:39;;;;;;;5.67;3.90;;;;;;;;;;5087264;28;20439;-76
2022/08/24 08:54:13;;;;;;;4.00;3.70;;;;;;;;;;5092907;28;20447;-76
2022/08/24 08:56:44;;;;;;;4.37;4.03;;;;;;;;;;5093209;28;20966;-77
2022/08/24 08:59:17;;;;;;;4.70;4.30;;;;;;;;;;5093198;28;20440;-77
2022/08/24 09:01:49;;;;;;;4.03;3.40;;;;;;;;;;5093526;28;20440;-77
2022/08/24 09:04:24;;;;;;;6.27;3.70;;;;;;;;;;5092963;28;20454;-77
2022/08/24 09:06:57;;;;;;;6.07;3.40;;;;;;;;;;5093256;28;20534;-77
2022/08/24 09:09:40;;;;;;;3.07;2.97;;;;;;;;;;5092358;28;20455;-77
2022/08/24 09:12:12;;;;;;;4.77;3.10;;;;;;;;;;5089823;28;20459;-77
2022/08/24 09:14:47;;;;;;;3.30;3.00;;;;;;;;;;5093473;28;20497;-78
2022/08/24 09:17:22;;;;;;;4.20;3.13;;;;;;;;;;5085129;28;20478;-77
2022/08/24 09:19:55;;;;;;;3.13;2.80;;;;;;;;;;5092748;28;20804;-78
2022/08/24 09:22:22;;;;;;;2.77;2.57;;;;;;;;;;5093337;28;20440;-77
2022/08/24 09:25:02;;;;;;;3.03;2.83;;;;;;;;;;5090165;28;20500;-77
2022/08/24 09:27:35;;;;;;;3.53;3.03;;;;;;;;;;5087426;28;20483;-77
2022/08/24 09:30:06;;;;;;;3.57;3.27;;;;;;;;;;5092259;28;20439;-76
2022/08/24 09:32:46;;;;;;;4.77;2.77;;;;;;;;;;5092820;28;20435;-76
2022/08/24 09:35:16;;;;;;;6.03;3.07;;;;;;;;;;5093437;28;20501;-77
2022/08/24 09:37:53;;;;;;;4.20;2.23;;;;;;;;;;5093291;28;20898;-76
2022/08/24 09:40:30;;;;;;;2.53;2.33;;;;;;;;;;5093307;28;20428;-77
2022/08/24 09:43:15;;;;;;;2.47;2.27;;;;;;;;;;5085858;28;20483;-77
2022/08/24 09:45:48;;;;;;;2.73;2.40;;;;;;;;;;5082522;28;20978;-77
2022/08/24 09:48:33;;;;;;;2.43;2.33;;;;;;;;;;5084747;28;20516;-77
2022/08/24 09:51:09;;;;;;;2.77;2.03;;;;;;;;;;5091244;28;20455;-77
2022/08/24 09:53:52;;;;;;;5.00;2.43;;;;;;;;;;5092208;28;20452;-77
2022/08/24 09:56:35;;;;;;;2.57;2.47;;;;;;;;;;5092426;28;20539;-77
2022/08/24 09:59:07;;;;;;;2.77;2.57;;;;;;;;;;5092594;28;20448;-76
2022/08/24 10:01:37;;;;;;;5.43;2.47;;;;;;;;;;5092198;28;20447;-76
2022/08/24 10:04:09;;;;;;;2.30;2.20;;;;;;;;;;5092048;28;20447;-77
2022/08/24 10:06:43;;;;;;;4.53;2.33;;;;;;;;;;5092385;28;20463;-75
2022/08/24 10:09:34;;;;;;;2.60;2.40;;;;;;;;;;5091962;28;20487;-79
2022/08/24 10:12:05;;;;;;;7.40;2.53;;;;;;;;;;5062568;28;20460;-76
2022/08/24 10:14:41;;;;;;;3.90;2.30;;;;;;;;;;5073164;28;20523;-76
2022/08/24 10:17:13;;;;;;;2.13;1.93;;;;;;;;;;5072970;28;20987;-77
2022/08/24 10:19:48;;;;;;;3.17;2.47;;;;;;;;;;5072695;28;20996;-77
2022/08/24 10:22:23;;;;;;;2.43;2.23;;;;;;;;;;5073236;28;20509;-77
2022/08/24 10:25:01;;;;;;;2.40;2.20;;;;;;;;;;5073439;28;20456;-76
2022/08/24 10:27:44;;;;;;;2.60;2.40;;;;;;;;;;5072964;28;20460;-77
2022/08/24 10:30:23;;;;;;;2.57;2.30;;;;;;;;;;5073135;28;20449;-78
2022/08/24 10:32:54;;;;;;;2.77;2.13;;;;;;;;;;5072733;28;21169;-77
2022/08/24 10:35:25;;;;;;;2.83;2.30;;;;;;;;;;5072587;28;20490;-76
2022/08/24 10:40:54;;;;;;;1.97;1.80;;;;;;;;;;5038667;28;20424;-77
2022/08/24 10:43:34;;;;;;;2.87;2.03;;;;;;;;;;5071941;28;20437;-76
2022/08/24 10:46:17;;;;;;;2.80;2.00;;;;;;;;;;5071809;28;20448;-77
2022/08/24 10:48:59;;;;;;;2.13;2.03;;;;;;;;;;5072126;28;20483;-77
2022/08/24 10:51:34;;;;;;;2.40;2.00;;;;;;;;;;5060046;28;20943;-76
2022/08/24 10:54:04;;;;;;;1.93;1.83;;;;;;;;;;5085119;28;20938;-76
2022/08/24 10:56:36;;;;;;;1.83;1.77;;;;;;;;;;5092348;28;20456;-76
2022/08/24 10:59:13;;;;;;;2.90;1.90;;;;;;;;;;5092562;28;20447;-77
2022/08/24 11:01:40;;;;;;;1.70;1.60;;;;;;;;;;5092183;28;20432;-77
2022/08/24 11:04:09;;;;;;;1.50;1.50;;;;;;;;;;5091774;28;20474;-78
2022/08/24 11:06:37;;;;;;;1.80;1.70;;;;;;;;;;5092188;28;20459;-77
2022/08/24 11:09:08;;;;;;;2.47;2.27;;;;;;;;;;5092261;28;20654;-77
2022/08/24 11:11:36;;;;;;;1.60;1.50;;;;;;;;;;5093111;28;20447;-77
2022/08/24 11:14:05;;;;;;;3.40;1.50;;;;;;;;;;5092461;28;20501;-76
2022/08/24 11:16:34;;;;;;;1.50;1.50;;;;;;;;;;5093380;28;20464;-77
2022/08/24 11:19:02;;;;;;;1.63;1.50;;;;;;;;;;5092842;28;20734;-77
2022/08/24 11:21:34;;;;;;;1.90;1.70;;;;;;;;;;5092708;28;20539;-77
2022/08/24 11:24:02;;;;;;;1.70;1.60;;;;;;;;;;5091736;28;20874;-77
2022/08/24 11:26:30;;;;;;;2.10;2.00;;;;;;;;;;5084705;28;20968;-75
2022/08/24 11:28:59;;;;;;;2.73;2.30;;;;;;;;;;5086565;28;20472;-76
2022/08/24 11:31:29;;;;;;;2.00;1.90;;;;;;;;;;5084221;28;20574;-76
2022/08/24 11:33:59;;;;;;;2.07;1.60;;;;;;;;;;5071744;28;20437;-76
2022/08/24 11:36:27;;;;;;;1.67;1.57;;;;;;;;;;5071611;28;20460;-76
2022/08/24 11:39:10;;;;;;;1.80;1.70;;;;;;;;;;5076084;28;20470;-77
2022/08/24 11:41:43;;;;;;;2.70;1.73;;;;;;;;;;5079683;28;20432;-76
2022/08/24 11:44:15;;;;;;;2.60;2.30;;;;;;;;;;5081322;28;20432;-76
2022/08/24 11:46:45;;;;;;;1.90;1.80;;;;;;;;;;5086213;28;20455;-77
2022/08/24 11:49:19;;;;;;;1.70;1.60;;;;;;;;;;5081107;28;21052;-76
2022/08/24 11:51:49;;;;;;;1.80;1.70;;;;;;;;;;5074380;28;20436;-77
2022/08/24 11:54:23;;;;;;;2.03;1.93;;;;;;;;;;5070778;28;20440;-76
2022/08/24 11:56:56;;;;;;;1.87;1.70;;;;;;;;;;5070922;28;20509;-77
2022/08/24 11:59:31;;;;;;;2.07;1.87;;;;;;;;;;5076177;28;20527;-77
2022/08/24 12:01:59;;;;;;;1.80;1.70;;;;;;;;;;5087181;28;20436;-77
2022/08/24 12:04:42;;;;;;;4.90;2.00;;;;;;;;;;5090473;28;20864;-76
2022/08/24 12:07:15;;;;;;;1.90;1.80;;;;;;;;;;5090482;28;20563;-77
2022/08/24 12:09:50;;;;;;;2.03;1.93;;;;;;;;;;5090197;28;20537;-75
2022/08/24 12:12:22;;;;;;;2.60;1.70;;;;;;;;;;5090421;28;20918;-75
2022/08/24 12:14:53;;;;;;;1.73;1.63;;;;;;;;;;5090347;28;20581;-76
2022/08/24 12:17:24;;;;;;;1.93;1.80;;;;;;;;;;5090756;28;20474;-76
2022/08/24 12:19:52;;;;;;;2.07;1.97;;;;;;;;;;5090192;28;20467;-76
2022/08/24 12:22:20;;;;;;;2.10;2.00;;;;;;;;;;5082800;28;20428;-76
2022/08/24 12:24:49;;;;;;;1.77;1.67;;;;;;;;;;5082443;28;20437;-75
2022/08/24 12:27:19;;;;;;;1.70;1.60;;;;;;;;;;5090955;28;20464;-76
2022/08/24 12:29:50;;;;;;;1.90;1.80;;;;;;;;;;5090133;28;20475;-77
2022/08/24 12:32:19;;;;;;;1.40;1.30;;;;;;;;;;5090344;28;20531;-75
2022/08/24 12:34:50;;;;;;;2.30;1.80;;;;;;;;;;5089854;28;20459;-75
2022/08/24 12:37:21;;;;;;;2.10;1.67;;;;;;;;;;5080106;28;20460;-76
2022/08/24 12:39:52;;;;;;;1.70;1.60;;;;;;;;;;5082012;28;20500;-76
2022/08/24 12:42:22;;;;;;;2.17;2.07;;;;;;;;;;5070234;28;20498;-76
2022/08/24 12:44:53;;;;;;;6.03;2.00;;;;;;;;;;5074656;28;20812;-77
2022/08/24 12:47:22;;;;;;;1.57;1.57;;;;;;;;;;5074179;28;20464;-75
2022/08/24 12:49:53;;;;;;;1.80;1.73;;;;;;;;;;5073936;28;20485;-76
2022/08/24 12:52:35;;;;;;;2.50;1.70;;;;;;;;;;5073852;28;20494;-76
2022/08/24 12:55:12;;;;;;;1.97;1.77;;;;;;;;;;5074038;28;20444;-76
2022/08/24 12:57:46;;;;;;;2.97;1.83;;;;;;;;;;5073924;28;20505;-77
2022/08/24 13:00:16;;;;;;;1.87;1.77;;;;;;;;;;5074070;28;20440;-77
2022/08/24 13:02:45;;;;;;;2.23;2.10;;;;;;;;;;5073445;28;20441;-77
2022/08/24 13:05:13;;;;;;;1.67;1.57;;;;;;;;;;5073812;28;20536;-77
2022/08/24 13:07:42;;;;;;;7.23;1.93;;;;;;;;;;5074753;28;20800;-77
2022/08/24 13:10:14;;;;;;;2.00;1.90;;;;;;;;;;5074563;28;20602;-77
2022/08/24 13:12:55;;;;;;;2.70;2.00;;;;;;;;;;5074481;28;20439;-76
2022/08/24 13:15:28;;;;;;;2.33;2.13;;;;;;;;;;5073132;28;20532;-77
2022/08/24 13:17:57;;;;;;;1.90;1.60;;;;;;;;;;5073715;28;20432;-77
2022/08/24 13:20:25;;;;;;;1.57;1.53;;;;;;;;;;5073912;28;21007;-77
2022/08/24 13:23:03;;;;;;;3.67;1.57;;;;;;;;;;5073590;28;20490;-76
2022/08/24 13:25:51;;;;;;;1.80;1.70;;;;;;;;;;5073187;28;20530;-78
2022/08/24 13:28:33;;;;;;;1.97;1.87;;;;;;;;;;5073308;28;20483;-76
2022/08/24 13:31:06;;;;;;;1.87;1.70;;;;;;;;;;5070557;28;20453;-76
2022/08/24 13:33:36;;;;;;;1.60;1.50;;;;;;;;;;5072867;28;20492;-77
2022/08/24 13:36:06;;;;;;;2.57;2.00;;;;;;;;;;5075377;28;20473;-76
2022/08/24 13:38:57;;;;;;;1.77;1.67;;;;;;;;;;5091846;28;20531;-76
2022/08/24 13:41:33;;;;;;;1.63;1.57;;;;;;;;;;5092944;28;21090;-77
2022/08/24 13:44:07;;;;;;;1.70;1.60;;;;;;;;;;5092553;28;20943;-77
2022/08/24 13:46:42;;;;;;;5.30;2.00;;;;;;;;;;5092526;28;20464;-76
2022/08/24 13:49:17;;;;;;;1.93;1.83;;;;;;;;;;5092398;28;20561;-75
2022/08/24 13:51:47;;;;;;;1.93;1.70;;;;;;;;;;5092556;28;20442;-76
2022/08/24 13:54:19;;;;;;;2.17;2.07;;;;;;;;;;5092332;28;20466;-77
2022/08/24 13:56:55;;;;;;;1.47;1.37;;;;;;;;;;5091789;28;20463;-75
2022/08/24 13:59:34;;;;;;;1.70;1.60;;;;;;;;;;5092450;28;20535;-76
2022/08/24 14:02:08;;;;;;;2.50;1.70;;;;;;;;;;5092409;28;20432;-76
2022/08/24 14:04:40;;;;;;;1.40;1.30;;;;;;;;;;5092168;28;20432;-76
2022/08/24 14:07:11;;;;;;;2.77;1.70;;;;;;;;;;5092307;28;20968;-76
2022/08/24 14:09:41;;;;;;;1.60;1.60;;;;;;;;;;5092254;28;20475;-76
2022/08/24 14:12:23;;;;;;;3.17;1.70;;;;;;;;;;5092498;28;20447;-76
2022/08/24 14:14:57;;;;;;;1.93;1.83;;;;;;;;;;5089975;28;20451;-77
2022/08/24 14:20:19;;;;;;;2.63;1.83;;;;;;;;;;5092666;28;20798;-77
2022/08/24 14:22:56;;;;;;;2.20;2.10;;;;;;;;;;5092475;28;20432;-76
2022/08/24 14:25:25;;;;;;;2.43;2.07;;;;;;;;;;5097049;28;20428;-75
2022/08/24 14:28:13;;;;;;;3.50;1.90;;;;;;;;;;5110914;28;20440;-75
2022/08/24 14:30:45;;;;;;;3.83;1.83;;;;;;;;;;5115612;28;20496;-75
2022/08/24 14:33:23;;;;;;;2.03;1.93;;;;;;;;;;5116513;28;20428;-75
2022/08/24 14:35:59;;;;;;;2.03;1.93;;;;;;;;;;5116931;28;20481;-76
2022/08/24 14:38:32;;;;;;;2.00;1.90;;;;;;;;;;5117006;28;20440;-75
2022/08/24 14:41:03;;;;;;;2.07;1.87;;;;;;;;;;5116993;28;20432;-75
2022/08/24 14:43:32;;;;;;;2.37;2.27;;;;;;;;;;5114938;28;20440;-75
2022/08/24 14:46:05;;;;;;;2.73;2.10;;;;;;;;;;5097351;28;20524;-76
2022/08/24 14:48:38;;;;;;;1.77;1.77;;;;;;;;;;5099226;28;20499;-76
2022/08/24 14:51:11;;;;;;;2.83;2.60;;;;;;;;;;5099489;28;20526;-76
2022/08/24 14:53:48;;;;;;;2.03;1.93;;;;;;;;;;5099266;28;20778;-74
2022/08/24 14:56:19;;;;;;;2.03;1.93;;;;;;;;;;5098383;28;20573;-76
2022/08/24 14:58:48;;;;;;;1.90;1.90;;;;;;;;;;5094849;28;20509;-76
2022/08/24 15:01:29;;;;;;;2.00;1.90;;;;;;;;;;5094250;28;20477;-75
2022/08/24 15:04:11;;;;;;;7.53;2.00;;;;;;;;;;5098361;28;20432;-75
2022/08/24 15:06:43;;;;;;;2.53;2.30;;;;;;;;;;5100403;28;20513;-75
2022/08/24 15:09:17;;;;;;;3.23;2.03;;;;;;;;;;5099132;28;20544;-76
2022/08/24 15:11:51;;;;;;;2.07;1.87;;;;;;;;;;5099739;28;20446;-76